createdAt,value
2022-08-07T00:01:44.325Z,3.08
2022-08-07T00:04:41.586Z,2.97
2022-08-07T00:07:47.877Z,3.15
2022-08-07T00:10:58.251Z,3.30
2022-08-07T00:14:00.796Z,3.30
2022-08-07T00:17:04.473Z,3.00
2022-08-07T00:20:09.724Z,3.10
2022-08-07T00:23:21.205Z,3.75
2022-08-07T00:26:48.679Z,3.10
2022-08-07T00:29:46.453Z,2.90
2022-08-07T00:32:50.200Z,3.00
2022-08-07T00:35:54.483Z,2.93
2022-08-07T00:38:56.928Z,2.90
2022-08-07T00:42:02.470Z,3.20
2022-08-07T00:45:09.094Z,3.13
2022-08-07T00:48:19.035Z,3.10
2022-08-07T00:51:56.883Z,2.97
2022-08-07T00:54:53.337Z,3.20
2022-08-07T00:57:56.759Z,2.80
2022-08-07T01:00:59.384Z,2.83
2022-08-07T01:04:07.421Z,2.83
2022-08-07T01:07:12.120Z,2.70
2022-08-07T01:10:18.281Z,3.15
2022-08-07T01:13:21.819Z,2.95
2022-08-07T01:16:30.574Z,3.20
2022-08-07T01:19:38.567Z,2.85
2022-08-07T01:22:54.074Z,3.23
2022-08-07T01:26:05.154Z,3.22
2022-08-07T01:29:09.177Z,2.92
2022-08-07T01:32:12.200Z,3.20
2022-08-07T01:35:19.706Z,3.47
2022-08-07T01:38:29.239Z,3.30
2022-08-07T01:41:38.106Z,3.22
2022-08-07T01:44:41.637Z,2.92
2022-08-07T01:48:18.601Z,3.10
2022-08-07T01:52:02.706Z,3.38
2022-08-07T01:54:37.593Z,2.90
2022-08-07T01:58:06.867Z,3.10
2022-08-07T02:01:58.815Z,3.53
2022-08-07T02:04:57.387Z,3.20
2022-08-07T02:08:09.287Z,3.17
2022-08-07T02:11:31.113Z,3.23
2022-08-07T02:14:41.193Z,3.20
2022-08-07T02:17:54.970Z,3.10
2022-08-07T02:21:06.324Z,3.10
2022-08-07T02:24:11.338Z,3.03
2022-08-07T02:27:22.871Z,2.90
2022-08-07T02:30:28.774Z,2.95
2022-08-07T02:34:01.743Z,2.92
2022-08-07T02:36:59.300Z,2.90
2022-08-07T02:40:30.199Z,2.60
2022-08-07T02:43:31.716Z,3.37
2022-08-07T02:46:36.748Z,3.08
2022-08-07T02:49:58.142Z,2.83
2022-08-07T02:53:13.020Z,2.85
2022-08-07T02:56:28.014Z,2.83
2022-08-07T03:00:10.985Z,2.70
2022-08-07T03:03:23.504Z,2.45
2022-08-07T03:06:33.260Z,2.80
2022-08-07T03:09:43.541Z,2.75
2022-08-07T03:12:50.213Z,2.60
2022-08-07T03:15:58.366Z,3.13
2022-08-07T03:19:05.001Z,2.53
2022-08-07T03:22:19.182Z,2.42
2022-08-07T03:25:25.485Z,2.60
2022-08-07T03:28:38.402Z,2.80
2022-08-07T03:31:46.459Z,2.57
2022-08-07T03:35:01.018Z,2.70
2022-08-07T03:38:21.184Z,2.28
2022-08-07T03:41:42.006Z,2.40
2022-08-07T03:44:53.487Z,2.30
2022-08-07T03:47:57.819Z,2.57
2022-08-07T03:51:05.412Z,2.30
2022-08-07T03:54:36.508Z,2.40
2022-08-07T03:58:32.638Z,2.40
2022-08-07T04:01:11.650Z,2.50
2022-08-07T04:04:18.511Z,2.30
2022-08-07T04:07:25.834Z,2.40
2022-08-07T04:10:43.233Z,2.38
2022-08-07T04:14:10.327Z,2.20
2022-08-07T04:17:22.067Z,2.50
2022-08-07T04:20:30.741Z,2.17
2022-08-07T04:24:01.950Z,2.33
2022-08-07T04:26:58.046Z,2.40
2022-08-07T04:30:02.083Z,2.30
2022-08-07T04:33:31.512Z,2.08
2022-08-07T04:36:40.465Z,2.23
2022-08-07T04:39:48.010Z,2.13
2022-08-07T04:42:53.509Z,2.30
2022-08-07T04:46:20.071Z,2.42
2022-08-07T04:49:57.561Z,2.50
2022-08-07T04:53:16.486Z,2.30
2022-08-07T04:58:16.095Z,2.20
2022-08-07T05:00:35.758Z,2.33
2022-08-07T05:04:06.566Z,2.40
2022-08-07T05:07:23.301Z,2.15
2022-08-07T05:10:43.383Z,2.40
2022-08-07T05:14:53.040Z,2.55
2022-08-07T05:17:51.753Z,2.38
2022-08-07T05:20:50.151Z,2.05
2022-08-07T05:24:02.871Z,2.40
2022-08-07T05:27:14.520Z,2.23
2022-08-07T05:30:34.208Z,2.50
2022-08-07T05:34:00.993Z,2.22
2022-08-07T05:37:07.612Z,2.00
2022-08-07T05:40:26.941Z,2.60
2022-08-07T05:43:50.253Z,2.43
2022-08-07T05:46:54.914Z,2.08
2022-08-07T05:50:03.016Z,2.05
2022-08-07T05:53:07.773Z,2.50
2022-08-07T05:56:31.935Z,2.50
2022-08-07T05:59:55.775Z,2.70
2022-08-07T06:03:05.340Z,2.33
2022-08-07T06:06:09.535Z,2.72
2022-08-07T06:09:15.143Z,2.15
2022-08-07T06:12:27.956Z,2.28
2022-08-07T06:15:39.414Z,2.10
2022-08-07T06:18:51.628Z,2.78
2022-08-07T06:22:14.292Z,2.50
2022-08-07T06:25:23.145Z,2.30
2022-08-07T06:28:27.553Z,2.20
2022-08-07T06:31:47.238Z,2.50
2022-08-07T06:34:54.943Z,2.38
2022-08-07T06:37:58.255Z,2.50
2022-08-07T06:41:09.718Z,2.50
2022-08-07T06:44:17.423Z,2.25
2022-08-07T06:47:23.591Z,2.40
2022-08-07T06:50:33.516Z,1.92
2022-08-07T06:55:27.295Z,2.15
2022-08-07T06:57:05.711Z,2.28
2022-08-07T07:00:18.181Z,2.30
2022-08-07T07:03:26.526Z,2.07
2022-08-07T07:07:00.169Z,1.92
2022-08-07T07:10:04.834Z,2.15
2022-08-07T07:13:43.614Z,2.03
2022-08-07T07:16:53.623Z,2.00
2022-08-07T07:19:59.809Z,2.13
2022-08-07T07:24:10.247Z,2.13
2022-08-07T07:26:35.061Z,2.33
2022-08-07T07:30:09.430Z,2.25
2022-08-07T07:33:13.515Z,2.20
2022-08-07T07:36:17.346Z,1.93
2022-08-07T07:39:22.619Z,2.00
2022-08-07T07:42:32.848Z,2.00
2022-08-07T07:46:36.790Z,2.17
2022-08-07T07:50:15.944Z,2.15
2022-08-07T07:52:27.405Z,2.10
2022-08-07T07:55:37.839Z,2.20
2022-08-07T07:58:50.608Z,2.33
2022-08-07T08:02:04.798Z,2.60
2022-08-07T08:05:16.378Z,2.08
2022-08-07T08:08:35.496Z,2.17
2022-08-07T08:11:59.250Z,2.30
2022-08-07T08:15:01.962Z,2.20
2022-08-07T08:18:17.227Z,2.13
2022-08-07T08:21:55.894Z,2.17
2022-08-07T08:25:42.296Z,2.40
2022-08-07T08:28:46.108Z,2.20
2022-08-07T08:32:17.132Z,2.35
2022-08-07T08:35:19.288Z,2.30
2022-08-07T08:38:36.686Z,2.20
2022-08-07T08:42:03.166Z,2.13
2022-08-07T08:45:26.727Z,2.10
2022-08-07T08:48:51.683Z,2.33
2022-08-07T08:52:13.664Z,2.15
2022-08-07T08:56:00.572Z,2.38
2022-08-07T08:59:29.419Z,2.37
2022-08-07T09:02:40.496Z,2.13
2022-08-07T09:05:55.798Z,2.22
2022-08-07T09:09:21.032Z,2.47
2022-08-07T09:12:56.666Z,1.85
2022-08-07T09:16:26.346Z,2.30
2022-08-07T09:19:53.164Z,2.10
2022-08-07T09:24:28.800Z,2.30
2022-08-07T09:26:57.045Z,1.90
2022-08-07T09:30:09.157Z,2.20
2022-08-07T09:33:52.614Z,2.40
2022-08-07T09:37:06.159Z,2.10
2022-08-07T09:40:35.448Z,2.17
2022-08-07T09:44:06.585Z,2.38
2022-08-07T09:47:51.359Z,2.70
2022-08-07T09:51:26.068Z,2.30
2022-08-07T09:55:17.265Z,2.60
2022-08-07T09:58:51.130Z,2.47
2022-08-07T10:02:55.614Z,2.60
2022-08-07T10:06:10.508Z,2.60
2022-08-07T10:09:58.895Z,2.70
2022-08-07T10:13:55.053Z,2.72
2022-08-07T10:17:16.532Z,2.25
2022-08-07T10:20:37.460Z,2.33
2022-08-07T10:24:05.723Z,3.40
2022-08-07T10:27:26.788Z,2.77
2022-08-07T10:30:35.404Z,2.88
2022-08-07T10:34:15.309Z,3.38
2022-08-07T10:37:48.690Z,2.67
2022-08-07T10:40:56.101Z,3.13
2022-08-07T10:44:16.057Z,3.20
2022-08-07T10:47:51.573Z,2.42
2022-08-07T10:50:58.348Z,2.55
2022-08-07T10:54:19.506Z,2.88
2022-08-07T10:57:43.322Z,2.88
2022-08-07T11:00:57.983Z,3.30
2022-08-07T11:04:34.881Z,3.65
2022-08-07T11:07:58.698Z,3.35
2022-08-07T11:11:10.381Z,3.30
2022-08-07T11:14:46.353Z,3.20
2022-08-07T11:18:03.545Z,3.80
2022-08-07T11:21:14.247Z,3.70
2022-08-07T11:24:33.488Z,3.90
2022-08-07T11:28:01.450Z,3.50
2022-08-07T11:31:33.254Z,2.83
2022-08-07T11:34:53.404Z,2.57
2022-08-07T11:38:12.644Z,3.10
2022-08-07T11:41:31.072Z,2.80
2022-08-07T11:44:57.524Z,3.03
2022-08-07T11:48:36.222Z,3.08
2022-08-07T11:51:44.860Z,2.80
2022-08-07T11:54:57.965Z,3.65
2022-08-07T11:58:13.157Z,3.00
2022-08-07T12:01:24.957Z,3.30
2022-08-07T12:04:56.783Z,3.20
2022-08-07T12:08:25.946Z,3.07
2022-08-07T12:12:10.234Z,3.58
2022-08-07T12:15:35.811Z,3.30
2022-08-07T12:18:50.634Z,3.05
2022-08-07T12:22:37.790Z,3.22
2022-08-07T12:26:05.854Z,3.30
2022-08-07T12:29:41.455Z,3.25
2022-08-07T12:33:01.162Z,3.30
2022-08-07T12:36:05.692Z,3.28
2022-08-07T12:39:43.905Z,3.40
2022-08-07T12:42:38.594Z,3.00
2022-08-07T12:46:32.585Z,3.17
2022-08-07T12:50:38.954Z,3.03
2022-08-07T12:54:02.740Z,3.35
2022-08-07T12:57:16.510Z,3.55
2022-08-07T13:00:35.804Z,3.10
2022-08-07T13:04:04.694Z,3.30
2022-08-07T13:08:11.958Z,3.35
2022-08-07T13:11:26.763Z,3.70
2022-08-07T13:14:50.993Z,3.40
2022-08-07T13:18:11.236Z,3.90
2022-08-07T13:21:37.388Z,3.53
2022-08-07T13:25:00.427Z,3.65
2022-08-07T13:28:18.320Z,3.78
2022-08-07T13:31:45.910Z,4.30
2022-08-07T13:35:08.606Z,4.10
2022-08-07T13:38:19.954Z,4.10
2022-08-07T13:41:35.063Z,3.97
2022-08-07T13:44:39.630Z,3.65
2022-08-07T13:48:06.480Z,4.03
2022-08-07T13:51:27.224Z,4.43
2022-08-07T13:54:33.533Z,5.00
2022-08-07T13:57:39.712Z,4.93
2022-08-07T14:01:11.267Z,5.10
2022-08-07T14:04:16.588Z,5.60
2022-08-07T14:07:28.551Z,5.23
2022-08-07T14:10:42.137Z,4.80
2022-08-07T14:13:56.658Z,4.88
2022-08-07T14:17:32.148Z,4.95
2022-08-07T14:20:43.149Z,4.65
2022-08-07T14:24:01.020Z,4.33
2022-08-07T14:28:11.358Z,4.68
2022-08-07T14:30:40.497Z,4.43
2022-08-07T14:33:45.303Z,4.25
2022-08-07T14:36:56.045Z,4.00
2022-08-07T14:40:17.392Z,4.10
2022-08-07T14:43:58.159Z,4.00
2022-08-07T14:50:18.834Z,4.40
2022-08-07T14:53:49.614Z,4.40
2022-08-07T14:56:50.299Z,4.60
2022-08-07T15:00:04.769Z,4.32
2022-08-07T15:06:36.850Z,4.30
2022-08-07T15:09:59.529Z,4.30
2022-08-07T15:13:11.948Z,4.27
2022-08-07T15:16:33.767Z,4.30
2022-08-07T15:20:16.181Z,4.40
2022-08-07T15:26:36.505Z,4.30
2022-08-07T15:30:06.691Z,4.13
2022-08-07T15:33:19.528Z,4.03
2022-08-07T15:39:56.911Z,4.10
2022-08-07T15:43:33.138Z,4.32
2022-08-07T15:50:06.842Z,4.50
2022-08-07T15:53:13.751Z,4.15
2022-08-07T15:56:17.408Z,3.97
2022-08-07T15:59:39.022Z,3.70
2022-08-07T16:02:46.751Z,3.77
2022-08-07T16:05:51.148Z,3.70
2022-08-07T16:08:57.837Z,3.40
2022-08-07T16:12:06.105Z,3.40
2022-08-07T16:15:55.326Z,3.17
2022-08-07T16:19:42.483Z,2.93
2022-08-07T16:23:52.963Z,3.20
2022-08-07T16:26:59.198Z,3.20
2022-08-07T16:30:30.863Z,3.10
2022-08-07T16:34:06.749Z,3.45
2022-08-07T16:38:04.656Z,3.40
2022-08-07T16:41:41.135Z,3.28
2022-08-07T16:48:53.670Z,3.25
2022-08-07T16:52:49.151Z,2.90
2022-08-07T16:56:00.040Z,3.20
2022-08-07T16:59:46.356Z,3.30
2022-08-07T17:03:57.694Z,3.15
2022-08-07T17:07:13.589Z,3.17
2022-08-07T17:10:32.479Z,3.30
2022-08-07T17:14:17.817Z,3.80
2022-08-07T17:17:28.149Z,3.42
2022-08-07T17:20:54.895Z,3.40
2022-08-07T17:24:23.731Z,3.60
2022-08-07T17:27:39.912Z,3.50
2022-08-07T17:31:36.049Z,3.33
2022-08-07T17:35:32.957Z,3.10
2022-08-07T17:38:33.860Z,3.20
2022-08-07T17:42:02.065Z,3.35
2022-08-07T17:45:14.917Z,3.25
2022-08-07T17:48:31.205Z,3.60
2022-08-07T17:52:00.726Z,3.00
2022-08-07T17:55:12.582Z,3.22
2022-08-07T17:58:29.953Z,3.17
2022-08-07T18:01:39.218Z,2.90
2022-08-07T18:04:51.612Z,3.13
2022-08-07T18:08:24.275Z,2.70
2022-08-07T18:12:07.256Z,3.20
2022-08-07T18:15:08.651Z,2.90
2022-08-07T18:18:45.046Z,2.95
2022-08-07T18:21:55.137Z,2.87
2022-08-07T18:25:23.999Z,3.45
2022-08-07T18:28:58.220Z,2.92
2022-08-07T18:32:32.718Z,3.10
2022-08-07T18:36:14.489Z,3.20
2022-08-07T18:40:07.245Z,2.77
2022-08-07T18:43:14.935Z,3.20
2022-08-07T18:46:27.385Z,3.40
2022-08-07T18:50:32.023Z,2.97
2022-08-07T18:53:36.636Z,2.90
2022-08-07T18:56:58.244Z,2.73
2022-08-07T19:00:32.812Z,2.90
2022-08-07T19:03:49.647Z,3.00
2022-08-07T19:07:35.051Z,2.90
2022-08-07T19:10:51.931Z,3.10
2022-08-07T19:14:08.032Z,3.20
2022-08-07T19:18:01.614Z,2.50
2022-08-07T19:21:12.767Z,2.58
2022-08-07T19:24:35.729Z,2.70
2022-08-07T19:28:58.313Z,2.20
2022-08-07T19:32:10.323Z,2.40
2022-08-07T19:35:12.498Z,2.60
2022-08-07T19:38:18.101Z,2.17
2022-08-07T19:41:39.134Z,2.17
2022-08-07T19:44:49.210Z,2.20
2022-08-07T19:47:56.112Z,1.90
2022-08-07T19:51:03.243Z,2.00
2022-08-07T19:54:34.782Z,1.95
2022-08-07T19:58:01.224Z,2.15
2022-08-07T20:01:17.500Z,2.15
2022-08-07T20:04:31.404Z,2.03
2022-08-07T20:07:47.467Z,2.00
2022-08-07T20:11:02.208Z,2.10
2022-08-07T20:14:07.354Z,1.90
2022-08-07T20:17:25.969Z,2.05
2022-08-07T20:20:31.720Z,1.97
2022-08-07T20:23:43.001Z,2.03
2022-08-07T20:26:54.576Z,1.90
2022-08-07T20:30:00.637Z,1.63
2022-08-07T20:33:05.415Z,1.77
2022-08-07T20:36:13.320Z,1.93
2022-08-07T20:39:31.129Z,1.70
2022-08-07T20:42:48.369Z,1.70
2022-08-07T20:46:24.656Z,1.70
2022-08-07T20:49:57.940Z,1.70
2022-08-07T20:52:51.683Z,1.60
2022-08-07T20:55:57.820Z,1.52
2022-08-07T20:59:06.031Z,1.60
2022-08-07T21:02:55.351Z,1.50
2022-08-07T21:06:22.369Z,1.50
2022-08-07T21:09:52.559Z,1.60
2022-08-07T21:13:00.648Z,1.38
2022-08-07T21:16:06.177Z,1.58
2022-08-07T21:19:14.010Z,1.60
2022-08-07T21:22:19.301Z,1.48
2022-08-07T21:25:56.403Z,1.37
2022-08-07T21:29:15.545Z,1.23
2022-08-07T21:32:46.679Z,1.23
2022-08-07T21:36:12.209Z,1.40
2022-08-07T21:39:51.886Z,1.30
2022-08-07T21:43:47.270Z,1.33
2022-08-07T21:47:01.380Z,1.27
2022-08-07T21:50:14.458Z,1.35
2022-08-07T21:53:20.756Z,1.50
2022-08-07T21:56:47.108Z,1.30
2022-08-07T22:00:04.358Z,1.30
2022-08-07T22:03:30.643Z,1.35
2022-08-07T22:06:45.530Z,1.40
2022-08-07T22:09:57.642Z,1.10
2022-08-07T22:13:09.050Z,1.33
2022-08-07T22:16:43.806Z,1.10
2022-08-07T22:19:46.066Z,1.27
2022-08-07T22:22:55.113Z,1.30
2022-08-07T22:26:18.042Z,1.17
2022-08-07T22:29:37.904Z,1.10
2022-08-07T22:33:01.705Z,1.20
2022-08-07T22:36:32.921Z,1.20
2022-08-07T22:40:12.309Z,1.33
2022-08-07T22:43:18.048Z,1.10
2022-08-07T22:47:03.772Z,1.20
2022-08-07T22:50:20.813Z,1.10
2022-08-07T22:54:06.508Z,1.05
2022-08-07T22:57:02.434Z,1.00
2022-08-07T23:00:14.321Z,0.90
2022-08-07T23:03:57.380Z,1.20
2022-08-07T23:07:39.658Z,1.10
2022-08-07T23:11:04.531Z,1.00
2022-08-07T23:14:47.546Z,1.00
2022-08-07T23:18:33.819Z,0.90
2022-08-07T23:21:52.382Z,0.90
2022-08-07T23:25:20.993Z,0.80
2022-08-07T23:28:35.145Z,1.00
2022-08-07T23:34:18.823Z,1.05
2022-08-07T23:35:37.577Z,1.00
2022-08-07T23:38:43.325Z,1.00
2022-08-07T23:42:21.425Z,0.87
2022-08-07T23:45:33.293Z,0.90
2022-08-07T23:49:15.181Z,1.20
2022-08-07T23:52:59.451Z,0.90
2022-08-07T23:56:57.701Z,0.98
